sensor_id;sensor_type;location;lat;lon;timestamp;P1;durP1;ratioP1;P2;durP2;ratioP2
41952;SDS011;47381;28.206;112.926;2022-09-09T00:04:44;39.65;;;32.35;;
41952;SDS011;47381;28.206;112.926;2022-09-09T00:21:34;38.28;;;33.42;;
41952;SDS011;47381;28.206;112.926;2022-09-09T00:24:37;41.75;;;35.17;;
41952;SDS011;47381;28.206;112.926;2022-09-09T00:27:06;37.95;;;30.20;;
41952;SDS011;47381;28.206;112.926;2022-09-09T00:30:20;38.40;;;30.17;;
41952;SDS011;47381;28.206;112.926;2022-09-09T00:32:57;41.03;;;30.60;;
41952;SDS011;47381;28.206;112.926;2022-09-09T00:35:45;36.42;;;30.10;;
41952;SDS011;47381;28.206;112.926;2022-09-09T00:38:16;33.90;;;30.13;;
41952;SDS011;47381;28.206;112.926;2022-09-09T00:49:31;37.63;;;31.67;;
41952;SDS011;47381;28.206;112.926;2022-09-09T00:52:22;41.45;;;34.03;;
41952;SDS011;47381;28.206;112.926;2022-09-09T00:55:07;41.63;;;31.38;;
41952;SDS011;47381;28.206;112.926;2022-09-09T00:57:44;35.45;;;31.58;;
41952;SDS011;47381;28.206;112.926;2022-09-09T01:06:31;45.40;;;33.15;;
41952;SDS011;47381;28.206;112.926;2022-09-09T01:16:58;43.42;;;33.45;;
41952;SDS011;47381;28.206;112.926;2022-09-09T01:20:35;43.63;;;37.92;;
41952;SDS011;47381;28.206;112.926;2022-09-09T01:25:29;45.28;;;34.47;;
41952;SDS011;47381;28.206;112.926;2022-09-09T01:28:26;38.58;;;33.92;;
41952;SDS011;47381;28.206;112.926;2022-09-09T01:30:55;38.15;;;33.88;;
41952;SDS011;47381;28.206;112.926;2022-09-09T01:33:23;40.00;;;33.42;;
41952;SDS011;47381;28.206;112.926;2022-09-09T01:38:21;39.03;;;32.53;;
41952;SDS011;47381;28.206;112.926;2022-09-09T01:40:51;38.42;;;31.25;;
41952;SDS011;47381;28.206;112.926;2022-09-09T01:43:22;40.47;;;31.92;;
41952;SDS011;47381;28.206;112.926;2022-09-09T01:45:52;40.13;;;32.00;;
41952;SDS011;47381;28.206;112.926;2022-09-09T01:48:22;37.40;;;31.23;;
41952;SDS011;47381;28.206;112.926;2022-09-09T01:50:51;39.45;;;32.08;;
41952;SDS011;47381;28.206;112.926;2022-09-09T01:53:18;36.78;;;30.95;;
41952;SDS011;47381;28.206;112.926;2022-09-09T01:59:17;38.97;;;33.67;;
41952;SDS011;47381;28.206;112.926;2022-09-09T02:07:51;38.20;;;31.23;;
41952;SDS011;47381;28.206;112.926;2022-09-09T02:10:30;38.72;;;32.50;;
41952;SDS011;47381;28.206;112.926;2022-09-09T02:13:07;41.42;;;34.30;;
41952;SDS011;47381;28.206;112.926;2022-09-09T02:18:38;38.08;;;31.77;;
41952;SDS011;47381;28.206;112.926;2022-09-09T02:21:11;36.40;;;30.65;;
41952;SDS011;47381;28.206;112.926;2022-09-09T02:23:41;39.30;;;29.80;;
41952;SDS011;47381;28.206;112.926;2022-09-09T02:26:10;36.58;;;31.15;;
41952;SDS011;47381;28.206;112.926;2022-09-09T02:28:44;35.67;;;31.88;;
41952;SDS011;47381;28.206;112.926;2022-09-09T02:31:15;35.03;;;29.95;;
41952;SDS011;47381;28.206;112.926;2022-09-09T02:33:47;41.80;;;35.20;;
41952;SDS011;47381;28.206;112.926;2022-09-09T02:36:20;37.50;;;32.20;;
41952;SDS011;47381;28.206;112.926;2022-09-09T02:38:50;37.10;;;30.92;;
41952;SDS011;47381;28.206;112.926;2022-09-09T02:41:26;37.10;;;30.75;;
41952;SDS011;47381;28.206;112.926;2022-09-09T02:43:59;39.92;;;32.10;;
41952;SDS011;47381;28.206;112.926;2022-09-09T02:51:51;35.05;;;28.95;;
41952;SDS011;47381;28.206;112.926;2022-09-09T02:54:54;38.47;;;32.03;;
41952;SDS011;47381;28.206;112.926;2022-09-09T02:57:29;35.17;;;30.45;;
41952;SDS011;47381;28.206;112.926;2022-09-09T02:59:59;35.90;;;30.17;;
41952;SDS011;47381;28.206;112.926;2022-09-09T03:02:27;36.10;;;28.73;;
41952;SDS011;47381;28.206;112.926;2022-09-09T03:04:54;34.67;;;28.65;;
41952;SDS011;47381;28.206;112.926;2022-09-09T03:07:21;31.88;;;28.23;;
41952;SDS011;47381;28.206;112.926;2022-09-09T03:09:48;32.38;;;28.85;;
41952;SDS011;47381;28.206;112.926;2022-09-09T03:12:15;32.28;;;28.88;;
41952;SDS011;47381;28.206;112.926;2022-09-09T03:14:42;30.52;;;27.33;;
41952;SDS011;47381;28.206;112.926;2022-09-09T03:17:11;30.85;;;27.55;;
41952;SDS011;47381;28.206;112.926;2022-09-09T03:19:38;31.75;;;26.45;;
41952;SDS011;47381;28.206;112.926;2022-09-09T03:22:05;31.40;;;26.33;;
41952;SDS011;47381;28.206;112.926;2022-09-09T03:24:32;28.83;;;25.80;;
41952;SDS011;47381;28.206;112.926;2022-09-09T03:26:59;30.42;;;27.25;;
41952;SDS011;47381;28.206;112.926;2022-09-09T03:29:26;32.08;;;27.52;;
41952;SDS011;47381;28.206;112.926;2022-09-09T03:32:16;34.30;;;27.88;;
41952;SDS011;47381;28.206;112.926;2022-09-09T03:35:04;32.17;;;26.73;;
41952;SDS011;47381;28.206;112.926;2022-09-09T03:37:31;33.67;;;27.80;;
41952;SDS011;47381;28.206;112.926;2022-09-09T03:39:58;28.88;;;25.00;;
41952;SDS011;47381;28.206;112.926;2022-09-09T03:42:25;32.10;;;26.02;;
41952;SDS011;47381;28.206;112.926;2022-09-09T03:44:52;33.33;;;28.73;;
41952;SDS011;47381;28.206;112.926;2022-09-09T03:47:20;30.50;;;26.42;;
41952;SDS011;47381;28.206;112.926;2022-09-09T03:49:47;31.70;;;26.50;;
41952;SDS011;47381;28.206;112.926;2022-09-09T03:52:39;30.55;;;27.13;;
41952;SDS011;47381;28.206;112.926;2022-09-09T03:55:07;31.10;;;25.02;;
41952;SDS011;47381;28.206;112.926;2022-09-09T03:57:54;28.80;;;24.02;;
41952;SDS011;47381;28.206;112.926;2022-09-09T04:00:21;26.98;;;24.05;;
41952;SDS011;47381;28.206;112.926;2022-09-09T04:02:49;28.25;;;23.45;;
41952;SDS011;47381;28.206;112.926;2022-09-09T04:05:19;29.50;;;24.58;;
41952;SDS011;47381;28.206;112.926;2022-09-09T04:07:46;29.98;;;24.90;;
41952;SDS011;47381;28.206;112.926;2022-09-09T04:10:13;32.88;;;24.77;;
41952;SDS011;47381;28.206;112.926;2022-09-09T04:12:41;27.63;;;23.27;;
41952;SDS011;47381;28.206;112.926;2022-09-09T04:15:08;29.08;;;24.30;;
41952;SDS011;47381;28.206;112.926;2022-09-09T04:17:36;26.08;;;21.92;;
41952;SDS011;47381;28.206;112.926;2022-09-09T04:20:03;27.05;;;21.35;;
41952;SDS011;47381;28.206;112.926;2022-09-09T04:22:30;25.70;;;21.88;;
41952;SDS011;47381;28.206;112.926;2022-09-09T04:24:57;26.15;;;22.17;;
41952;SDS011;47381;28.206;112.926;2022-09-09T04:27:44;28.58;;;23.50;;
41952;SDS011;47381;28.206;112.926;2022-09-09T04:30:12;26.50;;;23.65;;
41952;SDS011;47381;28.206;112.926;2022-09-09T04:32:40;26.20;;;21.63;;
41952;SDS011;47381;28.206;112.926;2022-09-09T04:35:07;26.40;;;22.25;;
41952;SDS011;47381;28.206;112.926;2022-09-09T04:37:34;30.33;;;23.83;;
41952;SDS011;47381;28.206;112.926;2022-09-09T04:40:01;30.98;;;24.33;;
41952;SDS011;47381;28.206;112.926;2022-09-09T04:42:28;28.55;;;24.33;;
41952;SDS011;47381;28.206;112.926;2022-09-09T04:44:55;25.67;;;22.95;;
41952;SDS011;47381;28.206;112.926;2022-09-09T04:47:22;28.20;;;22.92;;
41952;SDS011;47381;28.206;112.926;2022-09-09T04:49:50;27.35;;;24.35;;
41952;SDS011;47381;28.206;112.926;2022-09-09T04:52:18;25.45;;;21.88;;
41952;SDS011;47381;28.206;112.926;2022-09-09T04:54:46;28.50;;;24.73;;
41952;SDS011;47381;28.206;112.926;2022-09-09T04:57:34;25.45;;;21.73;;
41952;SDS011;47381;28.206;112.926;2022-09-09T05:00:07;27.27;;;24.38;;
41952;SDS011;47381;28.206;112.926;2022-09-09T05:02:38;27.90;;;24.42;;
41952;SDS011;47381;28.206;112.926;2022-09-09T05:05:10;30.92;;;24.95;;
41952;SDS011;47381;28.206;112.926;2022-09-09T05:07:37;27.60;;;23.45;;
41952;SDS011;47381;28.206;112.926;2022-09-09T05:10:04;27.33;;;24.50;;
41952;SDS011;47381;28.206;112.926;2022-09-09T05:12:31;29.48;;;24.33;;
41952;SDS011;47381;28.206;112.926;2022-09-09T05:14:59;29.33;;;26.10;;
41952;SDS011;47381;28.206;112.926;2022-09-09T05:17:26;31.73;;;27.33;;
41952;SDS011;47381;28.206;112.926;2022-09-09T05:20:13;28.60;;;25.52;;
41952;SDS011;47381;28.206;112.926;2022-09-09T05:22:40;27.23;;;24.40;;
41952;SDS011;47381;28.206;112.926;2022-09-09T05:25:10;29.38;;;24.73;;
41952;SDS011;47381;28.206;112.926;2022-09-09T05:27:37;32.33;;;26.90;;
41952;SDS011;47381;28.206;112.926;2022-09-09T05:30:25;28.92;;;23.88;;
41952;SDS011;47381;28.206;112.926;2022-09-09T05:32:52;32.10;;;26.08;;
41952;SDS011;47381;28.206;112.926;2022-09-09T05:35:21;30.10;;;23.42;;
41952;SDS011;47381;28.206;112.926;2022-09-09T05:37:48;29.42;;;24.67;;
41952;SDS011;47381;28.206;112.926;2022-09-09T05:40:15;27.73;;;23.50;;
41952;SDS011;47381;28.206;112.926;2022-09-09T05:42:42;29.05;;;23.70;;
41952;SDS011;47381;28.206;112.926;2022-09-09T05:45:12;28.20;;;24.02;;
41952;SDS011;47381;28.206;112.926;2022-09-09T05:47:39;31.30;;;24.15;;
41952;SDS011;47381;28.206;112.926;2022-09-09T05:50:07;27.50;;;24.52;;
41952;SDS011;47381;28.206;112.926;2022-09-09T05:52:34;25.98;;;23.23;;
41952;SDS011;47381;28.206;112.926;2022-09-09T05:55:01;27.55;;;24.50;;
41952;SDS011;47381;28.206;112.926;2022-09-09T05:57:29;29.50;;;24.63;;
41952;SDS011;47381;28.206;112.926;2022-09-09T05:59:57;26.92;;;24.02;;
41952;SDS011;47381;28.206;112.926;2022-09-09T06:02:25;27.83;;;23.63;;
41952;SDS011;47381;28.206;112.926;2022-09-09T06:04:53;26.77;;;23.40;;
41952;SDS011;47381;28.206;112.926;2022-09-09T06:07:21;29.80;;;25.95;;
41952;SDS011;47381;28.206;112.926;2022-09-09T06:09:48;30.77;;;23.13;;
41952;SDS011;47381;28.206;112.926;2022-09-09T06:12:16;27.40;;;23.42;;
41952;SDS011;47381;28.206;112.926;2022-09-09T06:14:43;28.95;;;25.02;;
41952;SDS011;47381;28.206;112.926;2022-09-09T06:17:11;27.02;;;23.70;;
41952;SDS011;47381;28.206;112.926;2022-09-09T06:19:38;24.98;;;22.38;;
41952;SDS011;47381;28.206;112.926;2022-09-09T06:22:05;29.42;;;24.25;;
41952;SDS011;47381;28.206;112.926;2022-09-09T06:24:33;26.27;;;23.42;;
41952;SDS011;47381;28.206;112.926;2022-09-09T06:27:00;27.52;;;24.10;;
41952;SDS011;47381;28.206;112.926;2022-09-09T06:29:27;32.90;;;25.58;;
41952;SDS011;47381;28.206;112.926;2022-09-09T06:31:55;26.67;;;22.20;;
41952;SDS011;47381;28.206;112.926;2022-09-09T06:34:23;26.55;;;23.67;;
41952;SDS011;47381;28.206;112.926;2022-09-09T06:36:50;25.30;;;22.27;;
41952;SDS011;47381;28.206;112.926;2022-09-09T06:39:17;24.75;;;21.73;;
41952;SDS011;47381;28.206;112.926;2022-09-09T06:41:44;25.80;;;22.33;;
41952;SDS011;47381;28.206;112.926;2022-09-09T06:44:12;27.20;;;23.67;;
41952;SDS011;47381;28.206;112.926;2022-09-09T06:46:41;26.10;;;23.45;;
41952;SDS011;47381;28.206;112.926;2022-09-09T06:49:08;29.88;;;24.65;;
41952;SDS011;47381;28.206;112.926;2022-09-09T06:51:37;28.17;;;23.95;;
41952;SDS011;47381;28.206;112.926;2022-09-09T06:54:08;26.52;;;23.73;;
41952;SDS011;47381;28.206;112.926;2022-09-09T06:56:37;28.67;;;24.15;;
41952;SDS011;47381;28.206;112.926;2022-09-09T06:59:09;25.63;;;22.92;;
41952;SDS011;47381;28.206;112.926;2022-09-09T07:01:38;26.13;;;23.33;;
41952;SDS011;47381;28.206;112.926;2022-09-09T07:04:07;26.67;;;23.02;;
41952;SDS011;47381;28.206;112.926;2022-09-09T07:06:42;25.42;;;21.85;;
41952;SDS011;47381;28.206;112.926;2022-09-09T07:09:12;25.95;;;23.23;;
41952;SDS011;47381;28.206;112.926;2022-09-09T07:11:47;27.17;;;24.17;;
41952;SDS011;47381;28.206;112.926;2022-09-09T07:14:19;24.58;;;21.77;;
41952;SDS011;47381;28.206;112.926;2022-09-09T07:16:46;25.20;;;21.98;;
41952;SDS011;47381;28.206;112.926;2022-09-09T07:19:14;27.33;;;23.45;;
41952;SDS011;47381;28.206;112.926;2022-09-09T07:21:42;25.30;;;22.33;;
41952;SDS011;47381;28.206;112.926;2022-09-09T07:24:09;26.38;;;22.98;;
41952;SDS011;47381;28.206;112.926;2022-09-09T07:26:37;24.27;;;21.70;;
41952;SDS011;47381;28.206;112.926;2022-09-09T07:29:05;26.65;;;22.15;;
41952;SDS011;47381;28.206;112.926;2022-09-09T07:31:35;22.65;;;20.25;;
41952;SDS011;47381;28.206;112.926;2022-09-09T07:34:05;24.60;;;21.85;;
41952;SDS011;47381;28.206;112.926;2022-09-09T07:36:33;24.05;;;21.65;;
41952;SDS011;47381;28.206;112.926;2022-09-09T07:41:55;23.23;;;20.83;;
41952;SDS011;47381;28.206;112.926;2022-09-09T07:44:24;23.45;;;20.95;;
41952;SDS011;47381;28.206;112.926;2022-09-09T07:46:54;22.88;;;20.60;;
41952;SDS011;47381;28.206;112.926;2022-09-09T07:49:22;26.92;;;21.55;;
41952;SDS011;47381;28.206;112.926;2022-09-09T07:51:49;25.95;;;23.20;;
41952;SDS011;47381;28.206;112.926;2022-09-09T07:54:17;24.48;;;21.92;;
41952;SDS011;47381;28.206;112.926;2022-09-09T07:56:49;24.63;;;22.10;;
41952;SDS011;47381;28.206;112.926;2022-09-09T07:59:20;23.77;;;21.42;;
41952;SDS011;47381;28.206;112.926;2022-09-09T08:01:48;23.67;;;20.58;;
41952;SDS011;47381;28.206;112.926;2022-09-09T08:04:20;21.75;;;19.50;;
41952;SDS011;47381;28.206;112.926;2022-09-09T08:06:53;24.02;;;21.50;;
41952;SDS011;47381;28.206;112.926;2022-09-09T08:09:23;24.80;;;22.27;;
41952;SDS011;47381;28.206;112.926;2022-09-09T08:11:52;23.83;;;21.40;;
41952;SDS011;47381;28.206;112.926;2022-09-09T08:14:20;23.60;;;20.88;;
41952;SDS011;47381;28.206;112.926;2022-09-09T08:16:49;25.40;;;21.73;;
41952;SDS011;47381;28.206;112.926;2022-09-09T08:19:18;23.92;;;21.38;;
41952;SDS011;47381;28.206;112.926;2022-09-09T08:21:45;24.55;;;21.85;;
41952;SDS011;47381;28.206;112.926;2022-09-09T08:24:14;22.73;;;20.45;;
41952;SDS011;47381;28.206;112.926;2022-09-09T08:26:45;23.55;;;21.13;;
41952;SDS011;47381;28.206;112.926;2022-09-09T08:29:17;22.92;;;20.10;;
41952;SDS011;47381;28.206;112.926;2022-09-09T08:32:04;22.92;;;20.15;;
41952;SDS011;47381;28.206;112.926;2022-09-09T08:34:31;23.63;;;21.13;;
41952;SDS011;47381;28.206;112.926;2022-09-09T08:36:58;24.70;;;21.08;;
41952;SDS011;47381;28.206;112.926;2022-09-09T08:39:25;21.77;;;19.48;;
41952;SDS011;47381;28.206;112.926;2022-09-09T08:44:42;22.88;;;19.35;;
41952;SDS011;47381;28.206;112.926;2022-09-09T08:58:34;25.88;;;20.45;;
41952;SDS011;47381;28.206;112.926;2022-09-09T09:07:00;21.83;;;19.50;;
41952;SDS011;47381;28.206;112.926;2022-09-09T09:09:48;21.25;;;19.00;;
41952;SDS011;47381;28.206;112.926;2022-09-09T09:12:38;22.77;;;18.25;;
41952;SDS011;47381;28.206;112.926;2022-09-09T09:15:19;24.10;;;20.20;;
41952;SDS011;47381;28.206;112.926;2022-09-09T09:17:50;19.38;;;17.25;;
41952;SDS011;47381;28.206;112.926;2022-09-09T09:20:18;20.02;;;17.40;;
41952;SDS011;47381;28.206;112.926;2022-09-09T09:25:34;19.40;;;16.77;;
41952;SDS011;47381;28.206;112.926;2022-09-09T09:28:18;23.10;;;19.92;;
41952;SDS011;47381;28.206;112.926;2022-09-09T09:30:54;21.25;;;17.77;;
41952;SDS011;47381;28.206;112.926;2022-09-09T09:35:58;20.00;;;17.73;;
41952;SDS011;47381;28.206;112.926;2022-09-09T09:38:26;20.33;;;17.85;;
41952;SDS011;47381;28.206;112.926;2022-09-09T09:40:58;18.20;;;16.27;;
41952;SDS011;47381;28.206;112.926;2022-09-09T09:43:29;19.92;;;15.73;;
41952;SDS011;47381;28.206;112.926;2022-09-09T09:45:58;21.83;;;17.37;;
41952;SDS011;47381;28.206;112.926;2022-09-09T09:48:27;18.67;;;15.70;;
41952;SDS011;47381;28.206;112.926;2022-09-09T09:51:22;21.08;;;16.20;;
41952;SDS011;47381;28.206;112.926;2022-09-09T09:53:50;19.60;;;17.33;;
41952;SDS011;47381;28.206;112.926;2022-09-09T09:56:29;21.30;;;18.13;;
41952;SDS011;47381;28.206;112.926;2022-09-09T09:58:57;22.80;;;17.40;;
41952;SDS011;47381;28.206;112.926;2022-09-09T10:01:28;22.73;;;17.15;;
41952;SDS011;47381;28.206;112.926;2022-09-09T10:06:44;21.15;;;16.75;;
41952;SDS011;47381;28.206;112.926;2022-09-09T10:11:55;20.95;;;17.88;;
41952;SDS011;47381;28.206;112.926;2022-09-09T10:14:43;22.35;;;17.83;;
41952;SDS011;47381;28.206;112.926;2022-09-09T10:17:45;22.35;;;17.08;;
41952;SDS011;47381;28.206;112.926;2022-09-09T10:33:49;20.50;;;18.10;;
41952;SDS011;47381;28.206;112.926;2022-09-09T10:36:24;25.67;;;21.05;;
41952;SDS011;47381;28.206;112.926;2022-09-09T10:46:51;21.93;;;18.43;;
41952;SDS011;47381;28.206;112.926;2022-09-09T10:49:52;22.25;;;18.48;;
41952;SDS011;47381;28.206;112.926;2022-09-09T10:55:48;23.63;;;19.20;;
41952;SDS011;47381;28.206;112.926;2022-09-09T10:58:36;22.00;;;17.23;;
41952;SDS011;47381;28.206;112.926;2022-09-09T11:01:18;21.17;;;18.17;;
41952;SDS011;47381;28.206;112.926;2022-09-09T11:03:48;22.83;;;18.73;;
41952;SDS011;47381;28.206;112.926;2022-09-09T11:06:34;25.70;;;18.10;;
41952;SDS011;47381;28.206;112.926;2022-09-09T11:09:11;22.60;;;19.27;;
41952;SDS011;47381;28.206;112.926;2022-09-09T11:11:56;20.80;;;16.65;;
41952;SDS011;47381;28.206;112.926;2022-09-09T11:17:15;25.33;;;19.83;;
41952;SDS011;47381;28.206;112.926;2022-09-09T11:19:50;21.90;;;18.60;;
41952;SDS011;47381;28.206;112.926;2022-09-09T11:45:09;22.13;;;18.88;;
41952;SDS011;47381;28.206;112.926;2022-09-09T11:47:56;22.63;;;19.25;;
41952;SDS011;47381;28.206;112.926;2022-09-09T11:53:02;21.80;;;18.15;;
41952;SDS011;47381;28.206;112.926;2022-09-09T11:55:39;24.02;;;17.65;;
41952;SDS011;47381;28.206;112.926;2022-09-09T11:58:33;19.38;;;17.27;;
41952;SDS011;47381;28.206;112.926;2022-09-09T12:01:27;21.48;;;16.30;;
41952;SDS011;47381;28.206;112.926;2022-09-09T12:04:46;19.65;;;17.60;;
41952;SDS011;47381;28.206;112.926;2022-09-09T12:07:21;20.77;;;17.55;;
41952;SDS011;47381;28.206;112.926;2022-09-09T12:13:17;20.83;;;16.47;;
41952;SDS011;47381;28.206;112.926;2022-09-09T12:18:21;19.95;;;17.58;;
41952;SDS011;47381;28.206;112.926;2022-09-09T12:21:03;18.70;;;16.65;;
41952;SDS011;47381;28.206;112.926;2022-09-09T12:24:01;19.90;;;16.58;;
41952;SDS011;47381;28.206;112.926;2022-09-09T12:26:37;18.15;;;15.55;;
41952;SDS011;47381;28.206;112.926;2022-09-09T12:29:29;19.75;;;16.38;;
41952;SDS011;47381;28.206;112.926;2022-09-09T12:32:25;17.50;;;15.43;;
41952;SDS011;47381;28.206;112.926;2022-09-09T12:35:07;19.15;;;16.65;;
41952;SDS011;47381;28.206;112.926;2022-09-09T12:40:28;18.77;;;14.95;;
41952;SDS011;47381;28.206;112.926;2022-09-09T12:43:02;19.05;;;15.10;;
41952;SDS011;47381;28.206;112.926;2022-09-09T12:45:47;15.48;;;13.88;;
41952;SDS011;47381;28.206;112.926;2022-09-09T12:48:25;15.98;;;14.35;;
41952;SDS011;47381;28.206;112.926;2022-09-09T12:51:00;16.63;;;14.43;;
41952;SDS011;47381;28.206;112.926;2022-09-09T12:53:34;18.63;;;14.27;;
41952;SDS011;47381;28.206;112.926;2022-09-09T12:56:08;18.40;;;16.08;;
41952;SDS011;47381;28.206;112.926;2022-09-09T12:58:45;19.08;;;14.90;;
41952;SDS011;47381;28.206;112.926;2022-09-09T13:03:59;16.23;;;14.63;;
41952;SDS011;47381;28.206;112.926;2022-09-09T13:06:27;16.40;;;14.70;;
41952;SDS011;47381;28.206;112.926;2022-09-09T13:08:57;17.17;;;14.20;;
41952;SDS011;47381;28.206;112.926;2022-09-09T13:11:58;16.30;;;14.63;;
41952;SDS011;47381;28.206;112.926;2022-09-09T13:17:21;17.00;;;15.18;;
41952;SDS011;47381;28.206;112.926;2022-09-09T13:19:50;18.23;;;15.15;;
41952;SDS011;47381;28.206;112.926;2022-09-09T13:22:23;16.60;;;14.27;;
41952;SDS011;47381;28.206;112.926;2022-09-09T13:25:20;14.77;;;13.13;;
41952;SDS011;47381;28.206;112.926;2022-09-09T13:27:57;14.75;;;13.10;;
41952;SDS011;47381;28.206;112.926;2022-09-09T13:38:21;19.08;;;15.85;;
41952;SDS011;47381;28.206;112.926;2022-09-09T13:40:54;15.77;;;13.15;;
41952;SDS011;47381;28.206;112.926;2022-09-09T13:43:36;16.45;;;14.00;;
41952;SDS011;47381;28.206;112.926;2022-09-09T13:52:03;16.10;;;13.90;;
41952;SDS011;47381;28.206;112.926;2022-09-09T13:54:32;15.75;;;14.05;;
41952;SDS011;47381;28.206;112.926;2022-09-09T13:57:00;16.10;;;13.50;;
41952;SDS011;47381;28.206;112.926;2022-09-09T13:59:30;16.55;;;13.40;;
41952;SDS011;47381;28.206;112.926;2022-09-09T14:02:01;16.45;;;14.75;;
41952;SDS011;47381;28.206;112.926;2022-09-09T14:04:29;16.90;;;14.68;;
41952;SDS011;47381;28.206;112.926;2022-09-09T14:07:00;16.50;;;14.18;;
41952;SDS011;47381;28.206;112.926;2022-09-09T14:09:28;15.68;;;13.93;;
41952;SDS011;47381;28.206;112.926;2022-09-09T14:11:55;16.08;;;14.48;;
41952;SDS011;47381;28.206;112.926;2022-09-09T14:14:43;20.65;;;14.52;;
41952;SDS011;47381;28.206;112.926;2022-09-09T14:17:11;16.33;;;14.63;;
41952;SDS011;47381;28.206;112.926;2022-09-09T14:19:40;18.67;;;14.88;;
41952;SDS011;47381;28.206;112.926;2022-09-09T14:22:08;15.43;;;13.70;;
41952;SDS011;47381;28.206;112.926;2022-09-09T14:24:55;17.13;;;13.40;;
41952;SDS011;47381;28.206;112.926;2022-09-09T14:27:23;16.15;;;13.20;;
41952;SDS011;47381;28.206;112.926;2022-09-09T14:29:54;15.82;;;14.00;;
41952;SDS011;47381;28.206;112.926;2022-09-09T14:32:21;15.88;;;14.27;;
41952;SDS011;47381;28.206;112.926;2022-09-09T14:34:50;17.25;;;13.95;;
41952;SDS011;47381;28.206;112.926;2022-09-09T14:37:17;16.65;;;14.80;;
41952;SDS011;47381;28.206;112.926;2022-09-09T14:40:04;16.88;;;13.45;;
41952;SDS011;47381;28.206;112.926;2022-09-09T14:42:32;16.80;;;14.60;;
41952;SDS011;47381;28.206;112.926;2022-09-09T14:45:00;18.90;;;13.95;;
41952;SDS011;47381;28.206;112.926;2022-09-09T14:47:27;17.08;;;14.15;;
41952;SDS011;47381;28.206;112.926;2022-09-09T14:49:54;17.08;;;14.63;;
41952;SDS011;47381;28.206;112.926;2022-09-09T14:52:21;16.75;;;13.82;;
41952;SDS011;47381;28.206;112.926;2022-09-09T14:54:49;16.83;;;14.85;;
41952;SDS011;47381;28.206;112.926;2022-09-09T14:57:16;16.05;;;14.05;;
41952;SDS011;47381;28.206;112.926;2022-09-09T14:59:43;20.25;;;15.35;;
41952;SDS011;47381;28.206;112.926;2022-09-09T15:02:10;18.63;;;15.80;;
41952;SDS011;47381;28.206;112.926;2022-09-09T15:04:38;17.67;;;15.77;;
41952;SDS011;47381;28.206;112.926;2022-09-09T15:07:05;17.63;;;15.15;;
41952;SDS011;47381;28.206;112.926;2022-09-09T15:09:36;18.75;;;15.18;;
41952;SDS011;47381;28.206;112.926;2022-09-09T15:12:03;19.55;;;15.88;;
41952;SDS011;47381;28.206;112.926;2022-09-09T15:14:30;18.25;;;15.93;;
41952;SDS011;47381;28.206;112.926;2022-09-09T15:17:01;17.58;;;15.27;;
41952;SDS011;47381;28.206;112.926;2022-09-09T15:19:30;19.80;;;15.68;;
41952;SDS011;47381;28.206;112.926;2022-09-09T15:22:01;18.45;;;16.55;;
41952;SDS011;47381;28.206;112.926;2022-09-09T15:24:31;20.13;;;15.75;;
41952;SDS011;47381;28.206;112.926;2022-09-09T15:26:58;20.13;;;16.55;;
41952;SDS011;47381;28.206;112.926;2022-09-09T15:29:26;21.35;;;16.60;;
41952;SDS011;47381;28.206;112.926;2022-09-09T15:31:54;20.75;;;16.83;;
41952;SDS011;47381;28.206;112.926;2022-09-09T15:34:21;20.70;;;17.45;;
41952;SDS011;47381;28.206;112.926;2022-09-09T15:36:49;21.13;;;17.73;;
41952;SDS011;47381;28.206;112.926;2022-09-09T15:39:17;19.90;;;17.50;;
41952;SDS011;47381;28.206;112.926;2022-09-09T15:41:45;21.67;;;18.30;;
41952;SDS011;47381;28.206;112.926;2022-09-09T15:44:14;21.55;;;17.92;;
41952;SDS011;47381;28.206;112.926;2022-09-09T15:46:43;21.40;;;17.15;;
41952;SDS011;47381;28.206;112.926;2022-09-09T15:49:19;19.67;;;16.70;;
41952;SDS011;47381;28.206;112.926;2022-09-09T15:51:53;20.15;;;18.17;;
41952;SDS011;47381;28.206;112.926;2022-09-09T15:54:33;20.85;;;15.55;;
41952;SDS011;47381;28.206;112.926;2022-09-09T15:57:02;19.80;;;17.80;;
41952;SDS011;47381;28.206;112.926;2022-09-09T15:59:31;19.33;;;17.30;;
41952;SDS011;47381;28.206;112.926;2022-09-09T16:01:59;20.25;;;17.98;;
41952;SDS011;47381;28.206;112.926;2022-09-09T16:04:35;21.40;;;17.58;;
41952;SDS011;47381;28.206;112.926;2022-09-09T16:07:03;23.73;;;19.13;;
41952;SDS011;47381;28.206;112.926;2022-09-09T16:09:34;23.33;;;18.52;;
41952;SDS011;47381;28.206;112.926;2022-09-09T16:12:02;23.65;;;18.48;;
41952;SDS011;47381;28.206;112.926;2022-09-09T16:14:35;23.00;;;18.90;;
41952;SDS011;47381;28.206;112.926;2022-09-09T16:17:04;22.15;;;18.63;;
41952;SDS011;47381;28.206;112.926;2022-09-09T16:19:32;20.73;;;18.38;;
41952;SDS011;47381;28.206;112.926;2022-09-09T16:22:00;25.58;;;19.27;;
41952;SDS011;47381;28.206;112.926;2022-09-09T16:24:31;18.80;;;16.25;;
41952;SDS011;47381;28.206;112.926;2022-09-09T16:26:59;20.08;;;17.88;;
41952;SDS011;47381;28.206;112.926;2022-09-09T16:29:26;19.38;;;17.38;;
41952;SDS011;47381;28.206;112.926;2022-09-09T16:31:55;19.77;;;17.55;;
41952;SDS011;47381;28.206;112.926;2022-09-09T16:34:22;20.08;;;16.45;;
41952;SDS011;47381;28.206;112.926;2022-09-09T16:36:50;20.65;;;17.80;;
41952;SDS011;47381;28.206;112.926;2022-09-09T16:39:19;23.25;;;17.80;;
41952;SDS011;47381;28.206;112.926;2022-09-09T16:41:48;21.55;;;17.90;;
41952;SDS011;47381;28.206;112.926;2022-09-09T16:44:17;21.20;;;19.00;;
41952;SDS011;47381;28.206;112.926;2022-09-09T16:46:45;21.27;;;17.50;;
41952;SDS011;47381;28.206;112.926;2022-09-09T16:49:20;21.10;;;17.55;;
41952;SDS011;47381;28.206;112.926;2022-09-09T16:51:48;22.17;;;17.38;;
41952;SDS011;47381;28.206;112.926;2022-09-09T16:54:18;20.27;;;17.88;;
41952;SDS011;47381;28.206;112.926;2022-09-09T16:56:47;21.50;;;17.63;;
41952;SDS011;47381;28.206;112.926;2022-09-09T16:59:15;19.13;;;16.23;;
41952;SDS011;47381;28.206;112.926;2022-09-09T17:01:48;19.23;;;17.17;;
41952;SDS011;47381;28.206;112.926;2022-09-09T17:04:21;21.08;;;18.90;;
41952;SDS011;47381;28.206;112.926;2022-09-09T17:06:51;21.13;;;18.15;;
41952;SDS011;47381;28.206;112.926;2022-09-09T17:09:19;19.20;;;17.02;;
41952;SDS011;47381;28.206;112.926;2022-09-09T17:11:48;24.05;;;17.60;;
41952;SDS011;47381;28.206;112.926;2022-09-09T17:14:18;21.02;;;18.73;;
41952;SDS011;47381;28.206;112.926;2022-09-09T17:16:46;19.55;;;16.88;;
41952;SDS011;47381;28.206;112.926;2022-09-09T17:19:14;23.60;;;18.02;;
41952;SDS011;47381;28.206;112.926;2022-09-09T17:21:41;20.25;;;18.08;;
41952;SDS011;47381;28.206;112.926;2022-09-09T17:24:10;22.63;;;19.05;;